createdAt,value
2022-10-05T00:00:43.162Z,69.90
2022-10-05T00:03:11.182Z,69.80
2022-10-05T00:05:38.655Z,69.80
2022-10-05T00:08:24.624Z,69.80
2022-10-05T00:10:52.230Z,69.90
2022-10-05T00:13:23.300Z,70.00
2022-10-05T00:15:50.667Z,70.00
2022-10-05T00:18:18.971Z,70.20
2022-10-05T00:20:46.473Z,70.30
2022-10-05T00:23:32.116Z,70.30
2022-10-05T00:26:06.634Z,70.40
2022-10-05T00:28:34.038Z,70.50
2022-10-05T00:31:01.080Z,70.50
2022-10-05T00:33:28.264Z,70.20
2022-10-05T00:35:55.608Z,70.10
2022-10-05T00:38:22.555Z,70.10
2022-10-05T00:40:55.653Z,70.20
2022-10-05T00:43:22.654Z,70.20
2022-10-05T00:46:09.290Z,70.20
2022-10-05T00:48:39.298Z,70.20
2022-10-05T00:51:21.057Z,70.30
2022-10-05T00:54:14.715Z,70.30
2022-10-05T00:57:03.297Z,70.40
2022-10-05T00:59:36.977Z,70.50
2022-10-05T01:02:16.153Z,70.50
2022-10-05T01:04:46.120Z,70.30
2022-10-05T01:07:19.594Z,70.30
2022-10-05T01:10:04.254Z,70.30
2022-10-05T01:12:31.068Z,70.40
2022-10-05T01:15:10.076Z,70.30
2022-10-05T01:17:46.399Z,70.50
2022-10-05T01:20:32.192Z,70.60
2022-10-05T01:23:05.370Z,70.70
2022-10-05T01:25:46.043Z,70.80
2022-10-05T01:28:16.788Z,70.80
2022-10-05T01:30:48.391Z,71.00
2022-10-05T01:33:31.944Z,70.90
2022-10-05T01:36:15.151Z,70.90
2022-10-05T01:38:45.009Z,70.90
2022-10-05T01:41:11.805Z,71.10
2022-10-05T01:44:02.079Z,71.20
2022-10-05T01:46:41.344Z,71.50
2022-10-05T01:49:31.973Z,71.80
2022-10-05T01:52:04.835Z,71.70
2022-10-05T01:54:35.115Z,71.60
2022-10-05T01:57:01.952Z,71.60
2022-10-05T01:59:37.978Z,71.60
2022-10-05T02:02:08.002Z,71.80
2022-10-05T02:05:01.010Z,72.90
2022-10-05T02:07:29.442Z,74.20
2022-10-05T02:10:14.653Z,75.70
2022-10-05T02:12:43.063Z,76.30
2022-10-05T02:15:12.877Z,76.40
2022-10-05T02:17:48.490Z,76.40
2022-10-05T02:20:20.302Z,76.50
2022-10-05T02:22:49.252Z,76.30
2022-10-05T02:25:17.778Z,76.00
2022-10-05T02:27:47.801Z,76.00
2022-10-05T02:30:16.960Z,75.70
2022-10-05T02:32:49.789Z,75.70
2022-10-05T02:35:18.406Z,75.60
2022-10-05T02:37:55.964Z,75.60
2022-10-05T02:40:32.024Z,75.10
2022-10-05T02:43:18.101Z,74.70
2022-10-05T02:45:45.310Z,74.10
2022-10-05T02:48:12.201Z,73.80
2022-10-05T02:50:42.099Z,73.70
2022-10-05T02:53:17.856Z,73.60
2022-10-05T02:55:51.139Z,73.40
2022-10-05T02:58:21.806Z,73.10
2022-10-05T03:01:11.793Z,72.90
2022-10-05T03:03:43.125Z,72.90
2022-10-05T03:06:17.413Z,72.50
2022-10-05T03:08:48.206Z,72.40
2022-10-05T03:11:20.915Z,72.40
2022-10-05T03:13:53.860Z,72.30
2022-10-05T03:16:30.522Z,72.50
2022-10-05T03:19:09.831Z,72.30
2022-10-05T03:21:43.295Z,72.40
2022-10-05T03:24:26.618Z,72.40
2022-10-05T03:26:54.145Z,72.40
2022-10-05T03:29:26.139Z,72.40
2022-10-05T03:32:00.745Z,72.40
2022-10-05T03:34:27.736Z,72.40
2022-10-05T03:37:07.714Z,72.40
2022-10-05T03:39:38.567Z,72.60
2022-10-05T03:42:05.478Z,72.70
2022-10-05T03:44:32.347Z,72.60
2022-10-05T03:47:05.792Z,72.80
2022-10-05T03:49:32.633Z,72.90
2022-10-05T03:52:18.523Z,73.00
2022-10-05T03:54:57.978Z,73.00
2022-10-05T03:57:26.797Z,73.10
2022-10-05T04:00:00.834Z,73.00
2022-10-05T04:02:32.876Z,73.00
2022-10-05T04:05:05.789Z,73.00
2022-10-05T04:07:32.774Z,73.30
2022-10-05T04:10:00.494Z,73.50
2022-10-05T04:12:33.172Z,73.80
2022-10-05T04:15:18.811Z,74.30
2022-10-05T04:17:48.781Z,74.20
2022-10-05T04:20:22.445Z,74.40
2022-10-05T04:22:49.327Z,74.80
2022-10-05T04:25:19.269Z,75.40
2022-10-05T04:28:13.458Z,76.10
2022-10-05T04:30:42.324Z,76.90
2022-10-05T04:33:10.934Z,78.10
2022-10-05T04:35:45.113Z,77.40
2022-10-05T04:38:48.564Z,77.40
2022-10-05T04:41:27.676Z,77.20
2022-10-05T04:44:00.805Z,76.70
2022-10-05T04:46:52.161Z,76.40
2022-10-05T04:49:19.332Z,76.00
2022-10-05T04:52:05.497Z,76.10
2022-10-05T04:54:52.082Z,76.00
2022-10-05T04:57:24.072Z,76.30
2022-10-05T05:00:00.613Z,76.30
2022-10-05T05:02:31.054Z,76.10
2022-10-05T05:05:00.927Z,76.20
2022-10-05T05:07:40.134Z,76.10
2022-10-05T05:10:07.716Z,76.20
2022-10-05T05:12:34.601Z,76.40
2022-10-05T05:15:20.374Z,76.30
2022-10-05T05:17:53.475Z,76.20
2022-10-05T05:20:27.080Z,76.00
2022-10-05T05:23:02.601Z,75.90
2022-10-05T05:25:47.919Z,75.70
2022-10-05T05:28:18.040Z,76.40
2022-10-05T05:30:52.411Z,75.80
2022-10-05T05:33:19.319Z,75.80
2022-10-05T05:36:00.375Z,75.80
2022-10-05T05:38:47.653Z,75.60
2022-10-05T05:41:27.046Z,75.50
2022-10-05T05:44:12.782Z,75.80
2022-10-05T05:47:03.919Z,76.00
2022-10-05T05:49:53.255Z,76.30
2022-10-05T05:52:23.893Z,76.20
2022-10-05T05:55:00.005Z,76.20
2022-10-05T05:57:45.906Z,76.10
2022-10-05T06:00:21.544Z,76.10
2022-10-05T06:03:03.884Z,76.00
2022-10-05T06:05:39.370Z,75.90
2022-10-05T06:08:26.005Z,76.00
2022-10-05T06:11:23.817Z,75.90
2022-10-05T06:13:51.407Z,76.20
2022-10-05T06:16:18.843Z,76.60
2022-10-05T06:18:48.313Z,76.60
2022-10-05T06:21:25.265Z,76.60
2022-10-05T06:23:55.420Z,76.50
2022-10-05T06:26:41.706Z,76.40
2022-10-05T06:29:12.529Z,76.60
2022-10-05T06:31:49.230Z,76.70
2022-10-05T06:34:19.541Z,76.50
2022-10-05T06:36:51.058Z,76.60
2022-10-05T06:39:21.949Z,76.80
2022-10-05T06:42:01.810Z,77.20
2022-10-05T06:44:47.306Z,77.10
2022-10-05T06:47:46.957Z,77.40
2022-10-05T06:50:38.624Z,77.50
2022-10-05T06:53:33.162Z,77.40
2022-10-05T06:56:12.454Z,77.30
2022-10-05T06:58:52.708Z,77.80
2022-10-05T07:01:20.105Z,79.40
2022-10-05T07:03:47.674Z,78.70
2022-10-05T07:06:40.991Z,76.60
2022-10-05T07:09:17.059Z,72.50
2022-10-05T07:11:57.533Z,68.10
2022-10-05T07:14:33.069Z,64.50
2022-10-05T07:17:07.272Z,61.60
2022-10-05T07:19:37.132Z,59.80
2022-10-05T07:22:19.690Z,58.90
2022-10-05T07:24:58.170Z,58.30
2022-10-05T07:27:28.843Z,58.10
2022-10-05T07:30:15.371Z,57.80
2022-10-05T07:32:54.981Z,56.90
2022-10-05T07:35:41.097Z,56.30
2022-10-05T07:38:14.659Z,55.80
2022-10-05T07:40:45.069Z,55.50
2022-10-05T07:43:18.468Z,55.10
2022-10-05T07:45:46.081Z,55.00
2022-10-05T07:48:16.454Z,54.50
2022-10-05T07:50:49.545Z,54.30
2022-10-05T07:53:32.800Z,54.10
2022-10-05T07:56:16.236Z,54.10
2022-10-05T07:58:43.232Z,54.90
2022-10-05T08:01:13.461Z,56.80
2022-10-05T08:03:50.194Z,58.50
2022-10-05T08:06:27.181Z,59.70
2022-10-05T08:09:01.584Z,61.00
2022-10-05T08:11:31.255Z,62.10
2022-10-05T08:14:05.343Z,63.10
2022-10-05T08:16:35.191Z,63.80
2022-10-05T08:19:08.291Z,64.40
2022-10-05T08:21:44.599Z,65.10
2022-10-05T08:24:30.183Z,65.70
2022-10-05T08:27:10.109Z,66.40
2022-10-05T08:29:55.922Z,66.70
2022-10-05T08:32:24.901Z,67.00
2022-10-05T08:34:51.767Z,67.20
2022-10-05T08:37:21.047Z,67.50
2022-10-05T08:39:47.919Z,67.80
2022-10-05T08:42:33.652Z,67.90
2022-10-05T08:45:00.419Z,68.00
2022-10-05T08:47:30.377Z,68.20
2022-10-05T08:50:03.989Z,68.10
2022-10-05T08:52:37.459Z,68.30
2022-10-05T08:55:10.300Z,68.40
2022-10-05T08:57:40.266Z,68.50
2022-10-05T09:00:19.597Z,68.50
2022-10-05T09:03:00.916Z,68.40
2022-10-05T09:05:37.436Z,68.60
2022-10-05T09:08:24.536Z,68.40
2022-10-05T09:10:54.434Z,68.20
2022-10-05T09:13:40.439Z,68.00
2022-10-05T09:16:10.478Z,67.90
2022-10-05T09:18:37.580Z,67.80
2022-10-05T09:21:17.263Z,67.70
2022-10-05T09:23:44.978Z,67.50
2022-10-05T09:26:11.810Z,67.40
2022-10-05T09:28:38.738Z,67.40
2022-10-05T09:31:11.847Z,67.20
2022-10-05T09:33:38.739Z,67.30
2022-10-05T09:36:09.201Z,67.10
2022-10-05T09:38:55.147Z,67.00
2022-10-05T09:41:31.342Z,66.70
2022-10-05T09:43:58.126Z,66.60
2022-10-05T09:46:25.148Z,66.50
2022-10-05T09:49:28.512Z,66.40
2022-10-05T09:51:58.847Z,66.30
2022-10-05T09:54:43.659Z,66.10
2022-10-05T09:57:26.038Z,65.90
2022-10-05T10:00:11.638Z,65.90
2022-10-05T10:02:41.192Z,65.70
2022-10-05T10:05:20.750Z,65.40
2022-10-05T10:08:10.946Z,65.40
2022-10-05T10:10:48.179Z,65.30
2022-10-05T10:13:24.257Z,65.10
2022-10-05T10:15:54.124Z,64.80
2022-10-05T10:18:20.962Z,64.50
2022-10-05T10:21:06.212Z,64.40
2022-10-05T10:23:52.011Z,64.00
2022-10-05T10:26:28.169Z,63.90
2022-10-05T10:29:19.891Z,63.60
2022-10-05T10:31:53.399Z,63.40
2022-10-05T10:34:26.365Z,63.10
2022-10-05T10:36:56.658Z,62.90
2022-10-05T10:39:27.224Z,62.70
2022-10-05T10:42:08.587Z,62.30
2022-10-05T10:44:48.123Z,62.00
2022-10-05T10:47:14.996Z,61.80
2022-10-05T10:49:55.164Z,61.40
2022-10-05T10:52:34.071Z,61.30
2022-10-05T10:55:01.072Z,61.00
2022-10-05T10:57:28.262Z,60.90
2022-10-05T11:00:15.749Z,60.90
2022-10-05T11:02:46.905Z,60.90
2022-10-05T11:05:30.593Z,60.30
2022-10-05T11:07:58.245Z,59.90
2022-10-05T11:10:30.089Z,59.50
2022-10-05T11:13:12.562Z,59.40
2022-10-05T11:15:58.346Z,59.10
2022-10-05T11:18:44.220Z,58.80
2022-10-05T11:21:10.997Z,58.70
2022-10-05T11:23:47.262Z,58.60
2022-10-05T11:26:32.948Z,58.40
2022-10-05T11:29:18.617Z,58.30
2022-10-05T11:31:54.890Z,58.10
2022-10-05T11:34:24.720Z,58.00
2022-10-05T11:36:54.786Z,57.90
2022-10-05T11:39:41.847Z,57.70
2022-10-05T11:42:24.035Z,57.70
2022-10-05T11:45:11.674Z,57.60
2022-10-05T11:47:57.069Z,57.50
2022-10-05T11:50:35.952Z,57.50
2022-10-05T11:53:18.999Z,57.30
2022-10-05T11:55:57.870Z,57.10
2022-10-05T11:58:28.679Z,57.00
2022-10-05T12:01:00.777Z,56.80
2022-10-05T12:03:33.008Z,56.60
2022-10-05T12:06:08.888Z,56.60
2022-10-05T12:08:54.499Z,57.20
2022-10-05T12:11:24.280Z,56.60
2022-10-05T12:13:56.319Z,56.40
2022-10-05T12:16:26.879Z,56.30
2022-10-05T12:18:57.426Z,56.20
2022-10-05T12:21:24.241Z,56.20
2022-10-05T12:24:00.352Z,56.00
2022-10-05T12:26:46.114Z,56.00
2022-10-05T12:29:25.388Z,55.80
2022-10-05T12:31:56.244Z,55.80
2022-10-05T12:34:23.008Z,55.80
2022-10-05T12:37:06.967Z,55.80
2022-10-05T12:39:41.485Z,55.80
2022-10-05T12:42:27.331Z,55.70
2022-10-05T12:45:00.349Z,55.60
2022-10-05T12:47:39.517Z,55.70
2022-10-05T12:50:15.940Z,55.80
2022-10-05T12:52:56.097Z,55.90
2022-10-05T12:55:26.045Z,57.20
2022-10-05T12:58:13.096Z,63.40
2022-10-05T13:00:45.842Z,69.80
2022-10-05T13:03:17.900Z,72.80
2022-10-05T13:05:50.737Z,74.90
2022-10-05T13:08:18.007Z,75.90
2022-10-05T13:11:02.260Z,75.60
2022-10-05T13:13:41.432Z,73.90
2022-10-05T13:16:15.531Z,71.30
2022-10-05T13:18:42.671Z,69.50
2022-10-05T13:21:14.041Z,67.70
2022-10-05T13:23:44.013Z,67.60
2022-10-05T13:26:21.963Z,67.90
2022-10-05T13:29:18.264Z,64.70
2022-10-05T13:31:48.012Z,63.60
2022-10-05T13:34:24.642Z,62.60
2022-10-05T13:36:57.486Z,61.00
2022-10-05T13:39:27.492Z,59.70
2022-10-05T13:41:59.686Z,59.30
2022-10-05T13:44:38.778Z,57.60
2022-10-05T13:47:13.074Z,56.50
2022-10-05T13:49:51.165Z,55.10
2022-10-05T13:52:21.113Z,54.60
2022-10-05T13:54:55.167Z,53.60
2022-10-05T13:57:45.320Z,52.30
2022-10-05T14:00:18.773Z,51.60
2022-10-05T14:02:50.932Z,51.20
2022-10-05T14:05:22.334Z,50.70
2022-10-05T14:07:49.149Z,50.20
2022-10-05T14:10:29.764Z,49.60
2022-10-05T14:12:56.545Z,49.20
2022-10-05T14:15:29.598Z,48.80
2022-10-05T14:17:56.779Z,48.50
2022-10-05T14:20:25.340Z,48.30
2022-10-05T14:23:01.030Z,48.10
2022-10-05T14:25:29.291Z,47.80
2022-10-05T14:27:56.146Z,47.70
2022-10-05T14:30:24.630Z,47.70
2022-10-05T14:32:51.575Z,47.50
2022-10-05T14:35:22.245Z,47.40
2022-10-05T14:37:52.051Z,47.30
2022-10-05T14:40:25.142Z,47.40
2022-10-05T14:42:52.101Z,47.50
2022-10-05T14:45:20.603Z,47.70
2022-10-05T14:47:51.891Z,48.00
2022-10-05T14:50:26.341Z,48.50
2022-10-05T14:52:59.193Z,49.10
2022-10-05T14:55:35.162Z,49.90
2022-10-05T14:58:05.131Z,51.00
2022-10-05T15:00:38.805Z,52.80
2022-10-05T15:03:08.711Z,55.10
2022-10-05T15:05:55.716Z,57.80
2022-10-05T15:08:25.914Z,59.40
2022-10-05T15:10:56.666Z,59.00
2022-10-05T15:13:34.420Z,58.90
2022-10-05T15:16:33.886Z,57.70
2022-10-05T15:19:16.293Z,57.40
2022-10-05T15:22:18.793Z,55.10
2022-10-05T15:24:54.208Z,52.50
2022-10-05T15:27:21.536Z,50.70
2022-10-05T15:29:52.514Z,49.70
2022-10-05T15:32:42.416Z,47.90
2022-10-05T15:35:09.362Z,46.50
2022-10-05T15:37:36.237Z,45.70
2022-10-05T15:40:05.143Z,44.80
2022-10-05T15:42:38.300Z,46.20
2022-10-05T15:45:20.778Z,46.90
2022-10-05T15:47:53.335Z,46.00
2022-10-05T15:50:28.629Z,44.60
2022-10-05T15:52:58.907Z,44.50
2022-10-05T15:55:35.229Z,44.50
2022-10-05T15:58:32.007Z,44.80
2022-10-05T16:01:04.763Z,44.40
2022-10-05T16:03:43.405Z,43.40
2022-10-05T16:06:34.609Z,42.80
2022-10-05T16:09:24.527Z,42.30
2022-10-05T16:12:26.409Z,42.00
2022-10-05T16:15:04.212Z,41.70
2022-10-05T16:17:44.407Z,41.60
2022-10-05T16:20:34.777Z,41.50
2022-10-05T16:23:08.940Z,41.50
2022-10-05T16:25:59.805Z,41.60
2022-10-05T16:29:03.690Z,41.70
2022-10-05T16:31:40.391Z,41.90
2022-10-05T16:34:17.308Z,42.00
2022-10-05T16:36:47.329Z,42.00
2022-10-05T16:39:17.323Z,42.00
2022-10-05T16:41:44.195Z,42.00
2022-10-05T16:44:16.665Z,42.10
2022-10-05T16:46:52.519Z,42.30
2022-10-05T16:49:19.335Z,42.50
2022-10-05T16:52:00.294Z,42.60
2022-10-05T16:54:37.280Z,42.80
2022-10-05T16:57:21.098Z,42.90
2022-10-05T16:59:54.159Z,43.10
2022-10-05T17:02:24.562Z,43.20
2022-10-05T17:05:21.406Z,43.40
2022-10-05T17:07:57.281Z,43.60
2022-10-05T17:10:46.122Z,43.70
2022-10-05T17:13:31.181Z,44.20
2022-10-05T17:16:13.898Z,44.40
2022-10-05T17:22:50.233Z,45.00
2022-10-05T17:26:30.352Z,45.20
2022-10-05T17:36:15.795Z,46.00
2022-10-05T17:42:25.545Z,46.60
2022-10-05T17:45:13.792Z,46.80
2022-10-05T17:48:14.376Z,47.10
2022-10-05T17:51:07.401Z,47.10
2022-10-05T17:53:54.759Z,47.20
2022-10-05T17:56:23.330Z,47.10
2022-10-05T17:59:01.687Z,47.20
2022-10-05T18:01:30.829Z,47.30
2022-10-05T18:04:13.018Z,47.20
2022-10-05T18:07:00.652Z,47.50
2022-10-05T18:09:39.558Z,47.40
2022-10-05T18:12:51.872Z,47.30
2022-10-05T18:15:27.508Z,47.40
2022-10-05T18:18:22.837Z,47.50
2022-10-05T18:21:13.736Z,47.70
2022-10-05T18:23:53.486Z,47.90
2022-10-05T18:26:27.744Z,48.10
2022-10-05T18:29:15.256Z,48.40
2022-10-05T18:31:53.753Z,48.40
2022-10-05T18:34:26.683Z,48.40
2022-10-05T18:37:00.666Z,48.30
2022-10-05T18:39:47.202Z,48.50
2022-10-05T18:42:27.205Z,48.50
2022-10-05T18:44:54.322Z,48.50
2022-10-05T18:47:38.501Z,48.50
2022-10-05T18:50:05.924Z,48.50
2022-10-05T18:52:36.712Z,48.70
2022-10-05T18:59:49.915Z,48.80
2022-10-05T19:02:29.356Z,48.80
2022-10-05T19:05:29.240Z,49.00
2022-10-05T19:07:59.354Z,49.20
2022-10-05T19:10:26.416Z,49.50
2022-10-05T19:12:53.280Z,49.60
2022-10-05T19:15:26.374Z,49.70
2022-10-05T19:17:56.385Z,49.80
2022-10-05T19:20:27.326Z,49.90
2022-10-05T19:23:03.250Z,49.90
2022-10-05T19:25:33.164Z,49.90
2022-10-05T19:28:03.213Z,49.90
2022-10-05T19:30:48.786Z,49.90
2022-10-05T19:33:22.074Z,49.90
2022-10-05T19:36:08.296Z,50.00
2022-10-05T19:38:41.385Z,49.90
2022-10-05T19:41:17.170Z,49.70
2022-10-05T19:43:50.585Z,49.80
2022-10-05T19:46:20.654Z,50.10
2022-10-05T19:48:48.746Z,50.10
2022-10-05T19:51:29.735Z,50.60
2022-10-05T19:54:00.290Z,50.80
2022-10-05T19:56:28.833Z,51.10
2022-10-05T19:58:57.529Z,51.10
2022-10-05T20:01:25.817Z,51.30
2022-10-05T20:03:53.550Z,51.20
2022-10-05T20:06:21.777Z,51.00
2022-10-05T20:08:51.093Z,51.10
2022-10-05T20:11:17.943Z,51.00
2022-10-05T20:13:46.294Z,51.30
2022-10-05T20:16:32.015Z,51.30
2022-10-05T20:19:17.704Z,51.30
2022-10-05T20:21:47.976Z,51.40
2022-10-05T20:24:14.902Z,51.40
2022-10-05T20:27:05.094Z,51.30
2022-10-05T20:29:38.380Z,51.20
2022-10-05T20:32:09.997Z,51.00
2022-10-05T20:34:37.586Z,51.00
2022-10-05T20:37:04.627Z,51.10
2022-10-05T20:39:31.593Z,51.40
2022-10-05T20:41:59.518Z,51.50
2022-10-05T20:44:27.075Z,51.40
2022-10-05T20:46:58.514Z,51.40
2022-10-05T20:49:26.486Z,51.80
2022-10-05T20:51:56.078Z,52.20
2022-10-05T20:54:24.039Z,52.40
2022-10-05T20:56:51.338Z,52.40
2022-10-05T20:59:18.235Z,52.30
2022-10-05T21:01:48.193Z,52.30
2022-10-05T21:04:15.993Z,52.30
2022-10-05T21:06:43.777Z,52.30
2022-10-05T21:09:11.847Z,52.30
2022-10-05T21:11:39.711Z,52.30
2022-10-05T21:14:07.683Z,52.40
2022-10-05T21:16:38.246Z,52.30
2022-10-05T21:19:12.388Z,52.40
2022-10-05T21:21:40.228Z,52.50
2022-10-05T21:24:08.689Z,52.60
2022-10-05T21:26:37.060Z,52.70
2022-10-05T21:29:07.782Z,52.80
2022-10-05T21:31:37.640Z,52.80
2022-10-05T21:34:04.813Z,52.60
2022-10-05T21:36:35.079Z,52.70
2022-10-05T21:39:02.055Z,52.50
2022-10-05T21:41:28.911Z,52.40
2022-10-05T21:43:55.815Z,52.50
2022-10-05T21:46:25.599Z,52.60
2022-10-05T21:48:53.022Z,52.50
2022-10-05T21:51:20.129Z,52.40
2022-10-05T21:54:03.660Z,52.30
2022-10-05T21:56:32.911Z,52.40
2022-10-05T21:59:01.493Z,52.50
2022-10-05T22:01:29.138Z,52.40
2022-10-05T22:03:56.995Z,52.30
2022-10-05T22:06:23.859Z,52.30
2022-10-05T22:08:50.688Z,52.10
2022-10-05T22:11:18.115Z,52.20
2022-10-05T22:13:46.198Z,52.10
2022-10-05T22:16:13.535Z,51.90
2022-10-05T22:18:40.709Z,52.10
2022-10-05T22:21:08.432Z,52.20
2022-10-05T22:23:36.023Z,52.30
2022-10-05T22:26:03.325Z,52.30
2022-10-05T22:28:31.493Z,52.00
2022-10-05T22:30:59.890Z,51.90
2022-10-05T22:33:27.206Z,51.90
2022-10-05T22:35:54.473Z,52.00
2022-10-05T22:38:21.329Z,52.00
2022-10-05T22:40:48.197Z,52.10
2022-10-05T22:43:15.046Z,52.10
2022-10-05T22:45:42.570Z,52.10
2022-10-05T22:48:09.730Z,52.00
2022-10-05T22:50:36.588Z,52.00
2022-10-05T22:53:03.463Z,52.00
2022-10-05T22:55:30.363Z,52.20
2022-10-05T22:57:57.208Z,52.00
2022-10-05T23:00:35.260Z,52.10
2022-10-05T23:03:11.003Z,52.10
2022-10-05T23:05:37.890Z,52.00
2022-10-05T23:08:04.811Z,52.00
2022-10-05T23:10:49.281Z,51.90
2022-10-05T23:13:17.399Z,51.90
2022-10-05T23:15:44.904Z,51.90
2022-10-05T23:18:12.086Z,51.90
2022-10-05T23:20:40.249Z,51.90
2022-10-05T23:23:07.173Z,51.90
2022-10-05T23:25:34.449Z,51.80
2022-10-05T23:28:02.470Z,51.80
2022-10-05T23:30:29.631Z,51.70
2022-10-05T23:32:56.632Z,51.70
2022-10-05T23:35:23.692Z,51.80
2022-10-05T23:37:51.323Z,51.80
2022-10-05T23:40:18.321Z,51.60
2022-10-05T23:42:45.165Z,51.70
2022-10-05T23:45:12.026Z,51.80
2022-10-05T23:47:39.978Z,51.80
2022-10-05T23:50:07.446Z,51.70
2022-10-05T23:52:34.673Z,51.70
2022-10-05T23:55:02.400Z,51.60
2022-10-05T23:57:29.451Z,51.50
2022-10-05T23:59:56.418Z,51.50
